sensor_id;sensor_type;location;lat;lon;timestamp;P1;durP1;ratioP1;P2;durP2;ratioP2
11921;SDS011;6021;51.182;3.160;2024-03-06T00:01:46;20.47;;;16.27;;
11921;SDS011;6021;51.182;3.160;2024-03-06T00:04:14;19.03;;;15.93;;
11921;SDS011;6021;51.182;3.160;2024-03-06T00:06:43;21.37;;;17.83;;
11921;SDS011;6021;51.182;3.160;2024-03-06T00:09:11;21.90;;;17.67;;
11921;SDS011;6021;51.182;3.160;2024-03-06T00:11:40;18.50;;;16.30;;
11921;SDS011;6021;51.182;3.160;2024-03-06T00:14:08;19.03;;;15.80;;
11921;SDS011;6021;51.182;3.160;2024-03-06T00:16:38;26.20;;;21.67;;
11921;SDS011;6021;51.182;3.160;2024-03-06T00:19:07;25.63;;;19.77;;
11921;SDS011;6021;51.182;3.160;2024-03-06T00:21:35;22.67;;;18.57;;
11921;SDS011;6021;51.182;3.160;2024-03-06T00:24:04;21.93;;;17.70;;
11921;SDS011;6021;51.182;3.160;2024-03-06T00:26:33;25.73;;;20.67;;
11921;SDS011;6021;51.182;3.160;2024-03-06T00:29:02;22.83;;;18.83;;
11921;SDS011;6021;51.182;3.160;2024-03-06T00:31:31;21.07;;;17.73;;
11921;SDS011;6021;51.182;3.160;2024-03-06T00:34:00;26.73;;;21.57;;
11921;SDS011;6021;51.182;3.160;2024-03-06T00:36:28;24.13;;;20.43;;
11921;SDS011;6021;51.182;3.160;2024-03-06T00:38:57;23.13;;;18.93;;
11921;SDS011;6021;51.182;3.160;2024-03-06T00:41:25;24.70;;;19.87;;
11921;SDS011;6021;51.182;3.160;2024-03-06T00:43:54;23.23;;;19.87;;
11921;SDS011;6021;51.182;3.160;2024-03-06T00:46:22;23.37;;;18.70;;
11921;SDS011;6021;51.182;3.160;2024-03-06T00:48:51;20.20;;;17.43;;
11921;SDS011;6021;51.182;3.160;2024-03-06T00:51:19;25.33;;;19.47;;
11921;SDS011;6021;51.182;3.160;2024-03-06T00:53:48;22.30;;;17.67;;
11921;SDS011;6021;51.182;3.160;2024-03-06T00:56:16;22.13;;;18.93;;
11921;SDS011;6021;51.182;3.160;2024-03-06T00:58:44;22.27;;;18.50;;
11921;SDS011;6021;51.182;3.160;2024-03-06T01:01:14;23.90;;;19.93;;
11921;SDS011;6021;51.182;3.160;2024-03-06T01:03:43;22.47;;;19.40;;
11921;SDS011;6021;51.182;3.160;2024-03-06T01:06:12;24.63;;;20.37;;
11921;SDS011;6021;51.182;3.160;2024-03-06T01:08:40;20.97;;;18.00;;
11921;SDS011;6021;51.182;3.160;2024-03-06T01:11:09;17.90;;;16.00;;
11921;SDS011;6021;51.182;3.160;2024-03-06T01:13:40;20.97;;;16.83;;
11921;SDS011;6021;51.182;3.160;2024-03-06T01:16:08;25.47;;;20.33;;
11921;SDS011;6021;51.182;3.160;2024-03-06T01:18:37;26.33;;;20.43;;
11921;SDS011;6021;51.182;3.160;2024-03-06T01:21:05;27.87;;;22.43;;
11921;SDS011;6021;51.182;3.160;2024-03-06T01:23:33;25.67;;;20.83;;
11921;SDS011;6021;51.182;3.160;2024-03-06T01:26:02;26.67;;;21.30;;
11921;SDS011;6021;51.182;3.160;2024-03-06T01:28:30;23.63;;;19.47;;
11921;SDS011;6021;51.182;3.160;2024-03-06T01:30:59;26.83;;;22.07;;
11921;SDS011;6021;51.182;3.160;2024-03-06T01:33:28;22.73;;;19.40;;
11921;SDS011;6021;51.182;3.160;2024-03-06T01:35:56;25.70;;;20.47;;
11921;SDS011;6021;51.182;3.160;2024-03-06T01:38:24;24.80;;;19.50;;
11921;SDS011;6021;51.182;3.160;2024-03-06T01:40:53;23.17;;;18.13;;
11921;SDS011;6021;51.182;3.160;2024-03-06T01:43:23;21.10;;;17.87;;
11921;SDS011;6021;51.182;3.160;2024-03-06T01:45:53;25.43;;;20.87;;
11921;SDS011;6021;51.182;3.160;2024-03-06T01:48:25;23.60;;;18.77;;
11921;SDS011;6021;51.182;3.160;2024-03-06T01:50:56;23.10;;;18.97;;
11921;SDS011;6021;51.182;3.160;2024-03-06T01:53:27;22.87;;;19.47;;
11921;SDS011;6021;51.182;3.160;2024-03-06T01:55:58;22.97;;;19.27;;
11921;SDS011;6021;51.182;3.160;2024-03-06T01:58:27;23.00;;;19.53;;
11921;SDS011;6021;51.182;3.160;2024-03-06T02:00:57;19.17;;;16.27;;
11921;SDS011;6021;51.182;3.160;2024-03-06T02:03:25;20.23;;;17.50;;
11921;SDS011;6021;51.182;3.160;2024-03-06T02:05:54;25.93;;;20.03;;
11921;SDS011;6021;51.182;3.160;2024-03-06T02:08:25;21.43;;;18.40;;
11921;SDS011;6021;51.182;3.160;2024-03-06T02:10:54;21.67;;;17.87;;
11921;SDS011;6021;51.182;3.160;2024-03-06T02:13:23;21.17;;;17.67;;
11921;SDS011;6021;51.182;3.160;2024-03-06T02:15:51;23.97;;;18.10;;
11921;SDS011;6021;51.182;3.160;2024-03-06T02:18:20;28.40;;;20.67;;
11921;SDS011;6021;51.182;3.160;2024-03-06T02:20:49;24.67;;;19.27;;
11921;SDS011;6021;51.182;3.160;2024-03-06T02:23:17;27.63;;;21.57;;
11921;SDS011;6021;51.182;3.160;2024-03-06T02:25:47;32.00;;;24.10;;
11921;SDS011;6021;51.182;3.160;2024-03-06T02:28:16;36.60;;;25.67;;
11921;SDS011;6021;51.182;3.160;2024-03-06T02:30:48;31.00;;;24.77;;
11921;SDS011;6021;51.182;3.160;2024-03-06T02:33:18;33.13;;;24.40;;
11921;SDS011;6021;51.182;3.160;2024-03-06T02:35:47;31.70;;;24.73;;
11921;SDS011;6021;51.182;3.160;2024-03-06T02:38:15;27.23;;;22.63;;
11921;SDS011;6021;51.182;3.160;2024-03-06T02:40:44;24.83;;;20.00;;
11921;SDS011;6021;51.182;3.160;2024-03-06T02:43:12;31.47;;;23.37;;
11921;SDS011;6021;51.182;3.160;2024-03-06T02:45:42;23.23;;;19.40;;
11921;SDS011;6021;51.182;3.160;2024-03-06T02:48:10;23.63;;;20.47;;
11921;SDS011;6021;51.182;3.160;2024-03-06T02:50:38;26.80;;;20.53;;
11921;SDS011;6021;51.182;3.160;2024-03-06T02:53:07;25.23;;;20.37;;
11921;SDS011;6021;51.182;3.160;2024-03-06T02:55:35;18.20;;;16.17;;
11921;SDS011;6021;51.182;3.160;2024-03-06T02:58:03;22.90;;;18.57;;
11921;SDS011;6021;51.182;3.160;2024-03-06T03:00:32;23.80;;;20.27;;
11921;SDS011;6021;51.182;3.160;2024-03-06T03:03:00;22.50;;;19.30;;
11921;SDS011;6021;51.182;3.160;2024-03-06T03:05:29;27.27;;;21.90;;
11921;SDS011;6021;51.182;3.160;2024-03-06T03:07:57;24.93;;;20.70;;
11921;SDS011;6021;51.182;3.160;2024-03-06T03:10:25;26.23;;;20.87;;
11921;SDS011;6021;51.182;3.160;2024-03-06T03:12:54;25.60;;;21.13;;
11921;SDS011;6021;51.182;3.160;2024-03-06T03:15:22;27.40;;;22.03;;
11921;SDS011;6021;51.182;3.160;2024-03-06T03:17:51;28.97;;;22.73;;
11921;SDS011;6021;51.182;3.160;2024-03-06T03:20:19;29.70;;;23.30;;
11921;SDS011;6021;51.182;3.160;2024-03-06T03:22:47;33.50;;;24.07;;
11921;SDS011;6021;51.182;3.160;2024-03-06T03:25:16;29.07;;;22.73;;
11921;SDS011;6021;51.182;3.160;2024-03-06T03:27:44;37.17;;;27.33;;
11921;SDS011;6021;51.182;3.160;2024-03-06T03:30:13;31.73;;;25.23;;
11921;SDS011;6021;51.182;3.160;2024-03-06T03:32:42;28.73;;;22.20;;
11921;SDS011;6021;51.182;3.160;2024-03-06T03:35:11;24.87;;;20.63;;
11921;SDS011;6021;51.182;3.160;2024-03-06T03:37:40;35.53;;;26.37;;
11921;SDS011;6021;51.182;3.160;2024-03-06T03:40:10;28.77;;;22.80;;
11921;SDS011;6021;51.182;3.160;2024-03-06T03:42:38;33.97;;;23.77;;
11921;SDS011;6021;51.182;3.160;2024-03-06T03:45:07;45.23;;;25.43;;
11921;SDS011;6021;51.182;3.160;2024-03-06T03:47:35;30.77;;;23.80;;
11921;SDS011;6021;51.182;3.160;2024-03-06T03:50:04;34.47;;;21.53;;
11921;SDS011;6021;51.182;3.160;2024-03-06T03:52:34;96.03;;;25.37;;
11921;SDS011;6021;51.182;3.160;2024-03-06T03:55:04;23.37;;;19.53;;
11921;SDS011;6021;51.182;3.160;2024-03-06T03:57:32;33.00;;;19.40;;
11921;SDS011;6021;51.182;3.160;2024-03-06T04:00:00;29.07;;;20.40;;
11921;SDS011;6021;51.182;3.160;2024-03-06T04:02:29;54.50;;;21.30;;
11921;SDS011;6021;51.182;3.160;2024-03-06T04:04:58;23.87;;;17.37;;
11921;SDS011;6021;51.182;3.160;2024-03-06T04:07:27;19.70;;;15.50;;
11921;SDS011;6021;51.182;3.160;2024-03-06T04:09:55;30.50;;;19.87;;
11921;SDS011;6021;51.182;3.160;2024-03-06T04:12:25;24.37;;;18.83;;
11921;SDS011;6021;51.182;3.160;2024-03-06T04:14:53;27.07;;;20.03;;
11921;SDS011;6021;51.182;3.160;2024-03-06T04:17:22;31.13;;;19.37;;
11921;SDS011;6021;51.182;3.160;2024-03-06T04:19:51;27.67;;;19.47;;
11921;SDS011;6021;51.182;3.160;2024-03-06T04:22:22;44.67;;;21.20;;
11921;SDS011;6021;51.182;3.160;2024-03-06T04:24:50;26.63;;;17.53;;
11921;SDS011;6021;51.182;3.160;2024-03-06T04:27:18;22.07;;;17.90;;
11921;SDS011;6021;51.182;3.160;2024-03-06T04:29:47;25.93;;;18.83;;
11921;SDS011;6021;51.182;3.160;2024-03-06T04:32:15;31.87;;;18.60;;
11921;SDS011;6021;51.182;3.160;2024-03-06T04:34:43;25.00;;;17.97;;
11921;SDS011;6021;51.182;3.160;2024-03-06T04:37:12;35.80;;;17.67;;
11921;SDS011;6021;51.182;3.160;2024-03-06T04:39:41;18.90;;;16.20;;
11921;SDS011;6021;51.182;3.160;2024-03-06T04:42:09;18.07;;;15.90;;
11921;SDS011;6021;51.182;3.160;2024-03-06T04:44:38;19.47;;;15.73;;
11921;SDS011;6021;51.182;3.160;2024-03-06T04:47:06;17.63;;;15.53;;
11921;SDS011;6021;51.182;3.160;2024-03-06T04:49:34;20.43;;;15.23;;
11921;SDS011;6021;51.182;3.160;2024-03-06T04:52:03;19.93;;;16.83;;
11921;SDS011;6021;51.182;3.160;2024-03-06T04:54:31;17.13;;;14.80;;
11921;SDS011;6021;51.182;3.160;2024-03-06T04:57:00;109.37;;;22.33;;
11921;SDS011;6021;51.182;3.160;2024-03-06T04:59:29;25.20;;;17.27;;
11921;SDS011;6021;51.182;3.160;2024-03-06T05:01:59;20.20;;;16.77;;
11921;SDS011;6021;51.182;3.160;2024-03-06T05:04:29;29.17;;;16.57;;
11921;SDS011;6021;51.182;3.160;2024-03-06T05:06:57;38.43;;;17.53;;
11921;SDS011;6021;51.182;3.160;2024-03-06T05:09:26;35.73;;;17.87;;
11921;SDS011;6021;51.182;3.160;2024-03-06T05:11:54;31.03;;;17.23;;
11921;SDS011;6021;51.182;3.160;2024-03-06T05:14:22;28.93;;;18.67;;
11921;SDS011;6021;51.182;3.160;2024-03-06T05:16:51;28.80;;;17.43;;
11921;SDS011;6021;51.182;3.160;2024-03-06T05:19:20;28.13;;;17.43;;
11921;SDS011;6021;51.182;3.160;2024-03-06T05:21:48;18.93;;;16.30;;
11921;SDS011;6021;51.182;3.160;2024-03-06T05:24:16;16.60;;;14.70;;
11921;SDS011;6021;51.182;3.160;2024-03-06T05:26:45;17.57;;;15.07;;
11921;SDS011;6021;51.182;3.160;2024-03-06T05:29:13;27.50;;;16.97;;
11921;SDS011;6021;51.182;3.160;2024-03-06T05:31:42;20.47;;;16.27;;
11921;SDS011;6021;51.182;3.160;2024-03-06T05:34:10;20.23;;;17.00;;
11921;SDS011;6021;51.182;3.160;2024-03-06T05:36:38;21.80;;;17.23;;
11921;SDS011;6021;51.182;3.160;2024-03-06T05:39:07;18.60;;;16.17;;
11921;SDS011;6021;51.182;3.160;2024-03-06T05:41:37;19.87;;;16.17;;
11921;SDS011;6021;51.182;3.160;2024-03-06T05:44:07;20.83;;;17.20;;
11921;SDS011;6021;51.182;3.160;2024-03-06T05:46:36;17.20;;;15.23;;
11921;SDS011;6021;51.182;3.160;2024-03-06T05:49:05;19.70;;;16.80;;
11921;SDS011;6021;51.182;3.160;2024-03-06T05:51:33;21.07;;;16.93;;
11921;SDS011;6021;51.182;3.160;2024-03-06T05:54:02;40.87;;;20.60;;
11921;SDS011;6021;51.182;3.160;2024-03-06T05:56:32;32.70;;;18.73;;
11921;SDS011;6021;51.182;3.160;2024-03-06T05:59:00;44.70;;;20.33;;
11921;SDS011;6021;51.182;3.160;2024-03-06T06:01:30;49.50;;;20.80;;
11921;SDS011;6021;51.182;3.160;2024-03-06T06:03:59;60.37;;;24.27;;
11921;SDS011;6021;51.182;3.160;2024-03-06T06:06:28;26.30;;;20.80;;
11921;SDS011;6021;51.182;3.160;2024-03-06T06:08:56;29.07;;;20.13;;
11921;SDS011;6021;51.182;3.160;2024-03-06T06:11:25;33.57;;;19.73;;
11921;SDS011;6021;51.182;3.160;2024-03-06T06:13:54;29.23;;;19.33;;
11921;SDS011;6021;51.182;3.160;2024-03-06T06:16:22;44.93;;;20.40;;
11921;SDS011;6021;51.182;3.160;2024-03-06T06:18:50;27.40;;;19.70;;
11921;SDS011;6021;51.182;3.160;2024-03-06T06:21:19;58.67;;;21.83;;
11921;SDS011;6021;51.182;3.160;2024-03-06T06:23:47;49.30;;;22.10;;
11921;SDS011;6021;51.182;3.160;2024-03-06T06:26:16;22.40;;;18.30;;
11921;SDS011;6021;51.182;3.160;2024-03-06T06:28:44;63.10;;;23.53;;
11921;SDS011;6021;51.182;3.160;2024-03-06T06:31:13;25.90;;;20.20;;
11921;SDS011;6021;51.182;3.160;2024-03-06T06:33:41;64.40;;;24.80;;
11921;SDS011;6021;51.182;3.160;2024-03-06T06:36:11;25.10;;;18.50;;
11921;SDS011;6021;51.182;3.160;2024-03-06T06:38:39;36.27;;;21.53;;
11921;SDS011;6021;51.182;3.160;2024-03-06T06:41:08;33.90;;;22.10;;
11921;SDS011;6021;51.182;3.160;2024-03-06T06:43:36;34.33;;;21.43;;
11921;SDS011;6021;51.182;3.160;2024-03-06T06:46:05;95.37;;;24.83;;
11921;SDS011;6021;51.182;3.160;2024-03-06T06:48:33;68.77;;;25.53;;
11921;SDS011;6021;51.182;3.160;2024-03-06T06:51:02;28.60;;;22.43;;
11921;SDS011;6021;51.182;3.160;2024-03-06T06:53:30;37.03;;;24.30;;
11921;SDS011;6021;51.182;3.160;2024-03-06T06:55:59;66.43;;;26.03;;
11921;SDS011;6021;51.182;3.160;2024-03-06T06:58:28;75.10;;;25.00;;
11921;SDS011;6021;51.182;3.160;2024-03-06T07:00:56;30.93;;;23.90;;
11921;SDS011;6021;51.182;3.160;2024-03-06T07:03:31;36.30;;;24.03;;
11921;SDS011;6021;51.182;3.160;2024-03-06T07:06:00;51.77;;;25.27;;
11921;SDS011;6021;51.182;3.160;2024-03-06T07:08:29;42.40;;;24.23;;
11921;SDS011;6021;51.182;3.160;2024-03-06T07:10:58;28.73;;;22.90;;
11921;SDS011;6021;51.182;3.160;2024-03-06T07:13:26;29.50;;;22.40;;
11921;SDS011;6021;51.182;3.160;2024-03-06T07:15:57;30.23;;;22.23;;
11921;SDS011;6021;51.182;3.160;2024-03-06T07:18:25;51.17;;;25.07;;
11921;SDS011;6021;51.182;3.160;2024-03-06T07:20:54;34.47;;;22.50;;
11921;SDS011;6021;51.182;3.160;2024-03-06T07:23:22;29.60;;;22.60;;
11921;SDS011;6021;51.182;3.160;2024-03-06T07:25:50;31.97;;;23.43;;
11921;SDS011;6021;51.182;3.160;2024-03-06T07:28:19;50.00;;;25.27;;
11921;SDS011;6021;51.182;3.160;2024-03-06T07:30:48;34.77;;;24.67;;
11921;SDS011;6021;51.182;3.160;2024-03-06T07:33:16;32.93;;;24.57;;
11921;SDS011;6021;51.182;3.160;2024-03-06T07:35:44;33.27;;;25.27;;
11921;SDS011;6021;51.182;3.160;2024-03-06T07:38:15;32.17;;;25.13;;
11921;SDS011;6021;51.182;3.160;2024-03-06T07:40:44;30.93;;;24.60;;
11921;SDS011;6021;51.182;3.160;2024-03-06T07:43:12;35.87;;;24.93;;
11921;SDS011;6021;51.182;3.160;2024-03-06T07:45:41;32.43;;;24.43;;
11921;SDS011;6021;51.182;3.160;2024-03-06T07:48:15;32.30;;;25.40;;
11921;SDS011;6021;51.182;3.160;2024-03-06T07:50:39;31.20;;;25.07;;
11921;SDS011;6021;51.182;3.160;2024-03-06T07:53:08;42.87;;;27.70;;
11921;SDS011;6021;51.182;3.160;2024-03-06T07:55:37;33.27;;;25.20;;
11921;SDS011;6021;51.182;3.160;2024-03-06T07:58:06;104.60;;;32.23;;
11921;SDS011;6021;51.182;3.160;2024-03-06T08:00:37;45.43;;;28.00;;
11921;SDS011;6021;51.182;3.160;2024-03-06T08:03:06;41.77;;;29.33;;
11921;SDS011;6021;51.182;3.160;2024-03-06T08:05:34;53.00;;;30.17;;
11921;SDS011;6021;51.182;3.160;2024-03-06T08:08:03;41.50;;;28.97;;
11921;SDS011;6021;51.182;3.160;2024-03-06T08:10:32;44.30;;;30.97;;
11921;SDS011;6021;51.182;3.160;2024-03-06T08:13:00;53.63;;;31.00;;
11921;SDS011;6021;51.182;3.160;2024-03-06T08:15:29;57.90;;;32.07;;
11921;SDS011;6021;51.182;3.160;2024-03-06T08:17:58;65.63;;;33.13;;
11921;SDS011;6021;51.182;3.160;2024-03-06T08:20:26;61.50;;;30.30;;
11921;SDS011;6021;51.182;3.160;2024-03-06T08:22:55;53.90;;;31.30;;
11921;SDS011;6021;51.182;3.160;2024-03-06T08:25:23;49.10;;;31.07;;
11921;SDS011;6021;51.182;3.160;2024-03-06T08:27:52;58.50;;;33.77;;
11921;SDS011;6021;51.182;3.160;2024-03-06T08:30:20;63.00;;;35.60;;
11921;SDS011;6021;51.182;3.160;2024-03-06T08:32:49;51.63;;;32.50;;
11921;SDS011;6021;51.182;3.160;2024-03-06T08:35:18;68.03;;;33.20;;
11921;SDS011;6021;51.182;3.160;2024-03-06T08:37:48;46.43;;;30.00;;
11921;SDS011;6021;51.182;3.160;2024-03-06T08:40:17;40.33;;;28.73;;
11921;SDS011;6021;51.182;3.160;2024-03-06T08:42:45;66.23;;;31.63;;
11921;SDS011;6021;51.182;3.160;2024-03-06T08:45:18;50.83;;;31.53;;
11921;SDS011;6021;51.182;3.160;2024-03-06T08:47:46;47.47;;;30.90;;
11921;SDS011;6021;51.182;3.160;2024-03-06T08:50:15;49.03;;;29.77;;
11921;SDS011;6021;51.182;3.160;2024-03-06T08:52:44;42.73;;;29.03;;
11921;SDS011;6021;51.182;3.160;2024-03-06T08:55:13;45.67;;;30.50;;
11921;SDS011;6021;51.182;3.160;2024-03-06T08:57:41;45.53;;;30.33;;
11921;SDS011;6021;51.182;3.160;2024-03-06T09:00:10;42.33;;;29.97;;
11921;SDS011;6021;51.182;3.160;2024-03-06T09:02:40;43.47;;;29.27;;
11921;SDS011;6021;51.182;3.160;2024-03-06T09:05:09;45.67;;;28.33;;
11921;SDS011;6021;51.182;3.160;2024-03-06T09:07:39;41.40;;;28.03;;
11921;SDS011;6021;51.182;3.160;2024-03-06T09:10:08;42.27;;;28.63;;
11921;SDS011;6021;51.182;3.160;2024-03-06T09:12:37;43.77;;;28.97;;
11921;SDS011;6021;51.182;3.160;2024-03-06T09:15:05;48.87;;;29.97;;
11921;SDS011;6021;51.182;3.160;2024-03-06T09:17:38;48.07;;;32.13;;
11921;SDS011;6021;51.182;3.160;2024-03-06T09:20:06;52.97;;;32.90;;
11921;SDS011;6021;51.182;3.160;2024-03-06T09:22:38;52.13;;;32.43;;
11921;SDS011;6021;51.182;3.160;2024-03-06T09:25:08;54.47;;;33.80;;
11921;SDS011;6021;51.182;3.160;2024-03-06T09:27:37;51.47;;;32.70;;
11921;SDS011;6021;51.182;3.160;2024-03-06T09:30:05;51.70;;;34.93;;
11921;SDS011;6021;51.182;3.160;2024-03-06T09:32:35;49.03;;;31.70;;
11921;SDS011;6021;51.182;3.160;2024-03-06T09:35:06;46.33;;;30.43;;
11921;SDS011;6021;51.182;3.160;2024-03-06T09:37:34;47.03;;;31.13;;
11921;SDS011;6021;51.182;3.160;2024-03-06T09:40:03;45.30;;;30.80;;
11921;SDS011;6021;51.182;3.160;2024-03-06T09:42:32;44.67;;;28.67;;
11921;SDS011;6021;51.182;3.160;2024-03-06T09:45:00;42.60;;;28.93;;
11921;SDS011;6021;51.182;3.160;2024-03-06T09:47:29;40.10;;;26.90;;
11921;SDS011;6021;51.182;3.160;2024-03-06T09:49:59;36.53;;;25.97;;
11921;SDS011;6021;51.182;3.160;2024-03-06T09:52:29;40.67;;;26.93;;
11921;SDS011;6021;51.182;3.160;2024-03-06T09:54:58;37.53;;;25.93;;
11921;SDS011;6021;51.182;3.160;2024-03-06T09:57:29;37.47;;;26.10;;
11921;SDS011;6021;51.182;3.160;2024-03-06T09:59:58;33.17;;;23.50;;
11921;SDS011;6021;51.182;3.160;2024-03-06T10:02:31;37.87;;;25.77;;
11921;SDS011;6021;51.182;3.160;2024-03-06T10:05:00;37.33;;;24.53;;
11921;SDS011;6021;51.182;3.160;2024-03-06T10:07:29;37.93;;;25.70;;
11921;SDS011;6021;51.182;3.160;2024-03-06T10:09:57;39.83;;;26.40;;
11921;SDS011;6021;51.182;3.160;2024-03-06T10:12:26;34.23;;;23.63;;
11921;SDS011;6021;51.182;3.160;2024-03-06T10:14:55;33.57;;;21.53;;
11921;SDS011;6021;51.182;3.160;2024-03-06T10:17:24;26.37;;;19.23;;
11921;SDS011;6021;51.182;3.160;2024-03-06T10:19:53;29.20;;;19.70;;
11921;SDS011;6021;51.182;3.160;2024-03-06T10:22:22;25.73;;;18.17;;
11921;SDS011;6021;51.182;3.160;2024-03-06T10:24:59;29.30;;;18.57;;
11921;SDS011;6021;51.182;3.160;2024-03-06T10:27:24;29.07;;;19.30;;
11921;SDS011;6021;51.182;3.160;2024-03-06T10:30:03;26.63;;;19.00;;
11921;SDS011;6021;51.182;3.160;2024-03-06T10:32:33;28.20;;;18.57;;
11921;SDS011;6021;51.182;3.160;2024-03-06T10:35:02;36.07;;;21.23;;
11921;SDS011;6021;51.182;3.160;2024-03-06T10:37:33;31.00;;;19.67;;
11921;SDS011;6021;51.182;3.160;2024-03-06T10:40:02;31.87;;;19.80;;
11921;SDS011;6021;51.182;3.160;2024-03-06T10:42:32;30.47;;;19.67;;
11921;SDS011;6021;51.182;3.160;2024-03-06T10:45:03;30.80;;;20.23;;
11921;SDS011;6021;51.182;3.160;2024-03-06T10:47:33;31.83;;;20.97;;
11921;SDS011;6021;51.182;3.160;2024-03-06T10:50:03;28.20;;;19.20;;
11921;SDS011;6021;51.182;3.160;2024-03-06T10:52:34;28.17;;;18.47;;
11921;SDS011;6021;51.182;3.160;2024-03-06T10:55:04;26.80;;;19.23;;
11921;SDS011;6021;51.182;3.160;2024-03-06T10:57:36;26.93;;;18.57;;
11921;SDS011;6021;51.182;3.160;2024-03-06T11:00:05;29.17;;;18.97;;
11921;SDS011;6021;51.182;3.160;2024-03-06T11:02:34;26.03;;;17.23;;
11921;SDS011;6021;51.182;3.160;2024-03-06T11:05:05;25.43;;;17.17;;
11921;SDS011;6021;51.182;3.160;2024-03-06T11:07:35;25.63;;;18.23;;
11921;SDS011;6021;51.182;3.160;2024-03-06T11:10:04;25.87;;;18.57;;
11921;SDS011;6021;51.182;3.160;2024-03-06T11:12:37;28.23;;;19.00;;
11921;SDS011;6021;51.182;3.160;2024-03-06T11:15:25;27.43;;;19.00;;
11921;SDS011;6021;51.182;3.160;2024-03-06T11:17:43;29.53;;;19.90;;
11921;SDS011;6021;51.182;3.160;2024-03-06T11:28:25;27.27;;;18.87;;
11921;SDS011;6021;51.182;3.160;2024-03-06T11:33:47;21.83;;;17.03;;
11921;SDS011;6021;51.182;3.160;2024-03-06T11:36:18;23.93;;;17.53;;
11921;SDS011;6021;51.182;3.160;2024-03-06T11:38:53;24.70;;;17.73;;
11921;SDS011;6021;51.182;3.160;2024-03-06T11:41:28;22.17;;;16.20;;
11921;SDS011;6021;51.182;3.160;2024-03-06T11:44:05;24.43;;;18.00;;
11921;SDS011;6021;51.182;3.160;2024-03-06T11:46:43;21.67;;;17.00;;
11921;SDS011;6021;51.182;3.160;2024-03-06T11:49:16;15.37;;;11.87;;
11921;SDS011;6021;51.182;3.160;2024-03-06T11:51:47;19.40;;;14.47;;
11921;SDS011;6021;51.182;3.160;2024-03-06T11:54:16;20.17;;;15.47;;
11921;SDS011;6021;51.182;3.160;2024-03-06T11:56:46;23.23;;;16.33;;
11921;SDS011;6021;51.182;3.160;2024-03-06T11:59:14;18.10;;;14.67;;
11921;SDS011;6021;51.182;3.160;2024-03-06T12:01:43;18.67;;;14.20;;
11921;SDS011;6021;51.182;3.160;2024-03-06T12:04:13;21.10;;;14.73;;
11921;SDS011;6021;51.182;3.160;2024-03-06T12:06:41;20.93;;;15.57;;
11921;SDS011;6021;51.182;3.160;2024-03-06T12:09:09;18.00;;;14.60;;
11921;SDS011;6021;51.182;3.160;2024-03-06T12:11:38;22.40;;;15.70;;
11921;SDS011;6021;51.182;3.160;2024-03-06T12:14:06;23.13;;;17.50;;
11921;SDS011;6021;51.182;3.160;2024-03-06T12:16:36;22.07;;;16.83;;
11921;SDS011;6021;51.182;3.160;2024-03-06T12:19:04;22.03;;;16.03;;
11921;SDS011;6021;51.182;3.160;2024-03-06T12:21:34;23.93;;;16.70;;
11921;SDS011;6021;51.182;3.160;2024-03-06T12:24:04;20.23;;;15.23;;
11921;SDS011;6021;51.182;3.160;2024-03-06T12:26:33;17.57;;;13.63;;
11921;SDS011;6021;51.182;3.160;2024-03-06T12:29:06;16.63;;;13.33;;
11921;SDS011;6021;51.182;3.160;2024-03-06T12:31:36;15.63;;;12.43;;
11921;SDS011;6021;51.182;3.160;2024-03-06T12:34:13;13.77;;;11.30;;
11921;SDS011;6021;51.182;3.160;2024-03-06T12:36:45;15.20;;;10.80;;
11921;SDS011;6021;51.182;3.160;2024-03-06T12:39:14;13.30;;;10.37;;
11921;SDS011;6021;51.182;3.160;2024-03-06T12:41:45;12.70;;;10.00;;
11921;SDS011;6021;51.182;3.160;2024-03-06T12:44:13;9.87;;;8.07;;
11921;SDS011;6021;51.182;3.160;2024-03-06T12:46:41;8.50;;;7.60;;
11921;SDS011;6021;51.182;3.160;2024-03-06T12:49:10;9.83;;;8.13;;
11921;SDS011;6021;51.182;3.160;2024-03-06T12:51:38;13.30;;;10.20;;
11921;SDS011;6021;51.182;3.160;2024-03-06T12:54:07;16.23;;;13.20;;
11921;SDS011;6021;51.182;3.160;2024-03-06T12:56:35;17.07;;;12.87;;
11921;SDS011;6021;51.182;3.160;2024-03-06T12:59:04;18.37;;;13.40;;
11921;SDS011;6021;51.182;3.160;2024-03-06T13:01:32;16.77;;;13.20;;
11921;SDS011;6021;51.182;3.160;2024-03-06T13:04:00;15.43;;;11.80;;
11921;SDS011;6021;51.182;3.160;2024-03-06T13:06:28;13.73;;;9.97;;
11921;SDS011;6021;51.182;3.160;2024-03-06T13:08:57;15.33;;;12.23;;
11921;SDS011;6021;51.182;3.160;2024-03-06T13:11:26;19.53;;;13.70;;
11921;SDS011;6021;51.182;3.160;2024-03-06T13:13:55;17.80;;;12.53;;
11921;SDS011;6021;51.182;3.160;2024-03-06T13:16:23;13.97;;;11.20;;
11921;SDS011;6021;51.182;3.160;2024-03-06T13:18:52;6.90;;;5.17;;
11921;SDS011;6021;51.182;3.160;2024-03-06T13:21:22;5.90;;;4.53;;
11921;SDS011;6021;51.182;3.160;2024-03-06T13:23:50;6.07;;;4.20;;
11921;SDS011;6021;51.182;3.160;2024-03-06T13:26:19;4.67;;;4.20;;
11921;SDS011;6021;51.182;3.160;2024-03-06T13:28:47;5.83;;;4.70;;
11921;SDS011;6021;51.182;3.160;2024-03-06T13:31:16;5.13;;;4.63;;
11921;SDS011;6021;51.182;3.160;2024-03-06T13:33:44;5.80;;;4.77;;
11921;SDS011;6021;51.182;3.160;2024-03-06T13:36:13;5.23;;;4.50;;
11921;SDS011;6021;51.182;3.160;2024-03-06T13:38:41;5.50;;;5.00;;
11921;SDS011;6021;51.182;3.160;2024-03-06T13:41:10;5.57;;;5.00;;
11921;SDS011;6021;51.182;3.160;2024-03-06T13:43:38;5.60;;;5.00;;
11921;SDS011;6021;51.182;3.160;2024-03-06T13:46:06;6.47;;;5.20;;
11921;SDS011;6021;51.182;3.160;2024-03-06T13:48:35;6.30;;;5.07;;
11921;SDS011;6021;51.182;3.160;2024-03-06T13:51:03;5.83;;;5.00;;
11921;SDS011;6021;51.182;3.160;2024-03-06T13:53:32;7.73;;;6.57;;
11921;SDS011;6021;51.182;3.160;2024-03-06T13:56:00;7.57;;;6.53;;
11921;SDS011;6021;51.182;3.160;2024-03-06T13:58:29;7.57;;;6.77;;
11921;SDS011;6021;51.182;3.160;2024-03-06T14:00:57;7.30;;;6.60;;
11921;SDS011;6021;51.182;3.160;2024-03-06T14:03:26;8.03;;;7.23;;
11921;SDS011;6021;51.182;3.160;2024-03-06T14:05:54;7.67;;;6.50;;
11921;SDS011;6021;51.182;3.160;2024-03-06T14:08:23;6.97;;;6.33;;
11921;SDS011;6021;51.182;3.160;2024-03-06T14:10:52;8.33;;;6.97;;
11921;SDS011;6021;51.182;3.160;2024-03-06T14:13:20;9.50;;;7.63;;
11921;SDS011;6021;51.182;3.160;2024-03-06T14:15:49;7.93;;;7.07;;
11921;SDS011;6021;51.182;3.160;2024-03-06T14:18:19;8.40;;;7.50;;
11921;SDS011;6021;51.182;3.160;2024-03-06T14:20:48;8.43;;;7.57;;
11921;SDS011;6021;51.182;3.160;2024-03-06T14:23:16;10.50;;;8.40;;
11921;SDS011;6021;51.182;3.160;2024-03-06T14:25:45;9.33;;;8.43;;
11921;SDS011;6021;51.182;3.160;2024-03-06T14:28:14;9.70;;;7.80;;
11921;SDS011;6021;51.182;3.160;2024-03-06T14:30:42;8.17;;;7.37;;
11921;SDS011;6021;51.182;3.160;2024-03-06T14:33:11;8.60;;;7.70;;
11921;SDS011;6021;51.182;3.160;2024-03-06T14:35:39;7.17;;;6.40;;
11921;SDS011;6021;51.182;3.160;2024-03-06T14:38:08;7.63;;;6.50;;
11921;SDS011;6021;51.182;3.160;2024-03-06T14:40:36;7.40;;;6.30;;
11921;SDS011;6021;51.182;3.160;2024-03-06T14:43:04;7.03;;;6.10;;
11921;SDS011;6021;51.182;3.160;2024-03-06T14:45:34;8.57;;;6.40;;
11921;SDS011;6021;51.182;3.160;2024-03-06T14:48:04;7.67;;;6.87;;
11921;SDS011;6021;51.182;3.160;2024-03-06T14:50:33;7.63;;;6.80;;
11921;SDS011;6021;51.182;3.160;2024-03-06T14:53:02;7.40;;;6.60;;
11921;SDS011;6021;51.182;3.160;2024-03-06T14:55:32;7.90;;;7.10;;
11921;SDS011;6021;51.182;3.160;2024-03-06T14:58:00;10.13;;;7.23;;
11921;SDS011;6021;51.182;3.160;2024-03-06T15:00:29;8.33;;;7.20;;